sensor_id;sensor_type;location;lat;lon;timestamp;pressure;altitude;pressure_sealevel;temperature;humidity
50349;BME280;36250;48.740;22.174;2022-07-23T00:00:25;100127.31;;;21.79;49.95
50349;BME280;36250;48.740;22.174;2022-07-23T00:02:51;100128.94;;;21.80;50.45
50349;BME280;36250;48.740;22.174;2022-07-23T00:05:16;100127.59;;;21.72;50.05
50349;BME280;36250;48.740;22.174;2022-07-23T00:07:41;100127.84;;;21.65;50.85
50349;BME280;36250;48.740;22.174;2022-07-23T00:10:06;100131.59;;;21.69;50.45
50349;BME280;36250;48.740;22.174;2022-07-23T00:12:32;100131.91;;;21.78;50.44
50349;BME280;36250;48.740;22.174;2022-07-23T00:14:57;100133.28;;;21.86;50.63
50349;BME280;36250;48.740;22.174;2022-07-23T00:17:23;100137.59;;;21.87;50.68
50349;BME280;36250;48.740;22.174;2022-07-23T00:19:48;100138.13;;;21.84;50.82
50349;BME280;36250;48.740;22.174;2022-07-23T00:22:13;100142.94;;;21.71;51.10
50349;BME280;36250;48.740;22.174;2022-07-23T00:24:38;100145.28;;;21.52;51.66
50349;BME280;36250;48.740;22.174;2022-07-23T00:27:04;100148.78;;;21.48;51.81
50349;BME280;36250;48.740;22.174;2022-07-23T00:29:29;100146.09;;;21.48;51.51
50349;BME280;36250;48.740;22.174;2022-07-23T00:31:55;100149.31;;;21.45;51.64
50349;BME280;36250;48.740;22.174;2022-07-23T00:34:20;100143.91;;;21.39;52.54
50349;BME280;36250;48.740;22.174;2022-07-23T00:36:45;100147.41;;;21.40;52.34
50349;BME280;36250;48.740;22.174;2022-07-23T00:39:10;100147.13;;;21.41;52.35
50349;BME280;36250;48.740;22.174;2022-07-23T00:41:35;100148.50;;;21.39;52.80
50349;BME280;36250;48.740;22.174;2022-07-23T00:44:23;100154.41;;;21.41;52.68
50349;BME280;36250;48.740;22.174;2022-07-23T00:46:58;100151.97;;;21.39;52.62
50349;BME280;36250;48.740;22.174;2022-07-23T00:49:24;100149.03;;;21.41;52.49
50349;BME280;36250;48.740;22.174;2022-07-23T00:51:50;100151.16;;;21.34;52.65
50349;BME280;36250;48.740;22.174;2022-07-23T00:54:16;100146.53;;;21.24;52.97
50349;BME280;36250;48.740;22.174;2022-07-23T00:56:42;100147.03;;;21.05;53.70
50349;BME280;36250;48.740;22.174;2022-07-23T00:59:07;100149.09;;;20.93;53.83
50349;BME280;36250;48.740;22.174;2022-07-23T01:01:33;100153.34;;;20.83;54.34
50349;BME280;36250;48.740;22.174;2022-07-23T01:03:58;100153.28;;;20.73;55.12
50349;BME280;36250;48.740;22.174;2022-07-23T01:06:24;100156.47;;;20.70;55.33
50349;BME280;36250;48.740;22.174;2022-07-23T01:08:49;100156.75;;;20.74;55.25
50349;BME280;36250;48.740;22.174;2022-07-23T01:11:14;100152.56;;;20.83;55.34
50349;BME280;36250;48.740;22.174;2022-07-23T01:13:42;100144.47;;;20.83;55.28
50349;BME280;36250;48.740;22.174;2022-07-23T01:16:08;100154.19;;;20.84;54.71
50349;BME280;36250;48.740;22.174;2022-07-23T01:18:33;100155.53;;;20.87;54.86
50349;BME280;36250;48.740;22.174;2022-07-23T01:20:58;100160.00;;;20.76;55.16
50349;BME280;36250;48.740;22.174;2022-07-23T01:23:23;100161.84;;;20.65;55.64
50349;BME280;36250;48.740;22.174;2022-07-23T01:25:51;100157.97;;;20.55;55.54
50349;BME280;36250;48.740;22.174;2022-07-23T01:28:17;100157.78;;;20.62;55.95
50349;BME280;36250;48.740;22.174;2022-07-23T01:30:42;100159.16;;;20.65;55.88
50349;BME280;36250;48.740;22.174;2022-07-23T01:33:07;100159.94;;;20.65;55.69
50349;BME280;36250;48.740;22.174;2022-07-23T01:35:33;100163.44;;;20.61;56.23
50349;BME280;36250;48.740;22.174;2022-07-23T01:37:58;100162.28;;;20.56;57.20
50349;BME280;36250;48.740;22.174;2022-07-23T01:40:23;100155.00;;;20.52;58.01
50349;BME280;36250;48.740;22.174;2022-07-23T01:42:48;100150.06;;;20.38;58.02
50349;BME280;36250;48.740;22.174;2022-07-23T01:45:13;100157.63;;;20.41;58.12
50349;BME280;36250;48.740;22.174;2022-07-23T01:47:39;100154.72;;;20.48;57.89
50349;BME280;36250;48.740;22.174;2022-07-23T01:50:04;100152.38;;;20.62;56.80
50349;BME280;36250;48.740;22.174;2022-07-23T01:52:29;100157.03;;;20.72;57.88
50349;BME280;36250;48.740;22.174;2022-07-23T01:54:55;100158.63;;;20.68;57.68
50349;BME280;36250;48.740;22.174;2022-07-23T01:57:20;100162.06;;;20.63;57.12
50349;BME280;36250;48.740;22.174;2022-07-23T01:59:45;100155.41;;;20.71;56.98
50349;BME280;36250;48.740;22.174;2022-07-23T02:02:10;100152.75;;;20.76;56.59
50349;BME280;36250;48.740;22.174;2022-07-23T02:04:35;100150.84;;;20.77;56.45
50349;BME280;36250;48.740;22.174;2022-07-23T02:07:01;100145.59;;;20.87;56.78
50349;BME280;36250;48.740;22.174;2022-07-23T02:09:27;100150.44;;;20.90;56.32
50349;BME280;36250;48.740;22.174;2022-07-23T02:11:52;100145.63;;;20.97;56.04
50349;BME280;36250;48.740;22.174;2022-07-23T02:14:17;100141.09;;;21.03;56.63
50349;BME280;36250;48.740;22.174;2022-07-23T02:16:42;100136.25;;;21.05;56.63
50349;BME280;36250;48.740;22.174;2022-07-23T02:19:08;100143.22;;;21.01;56.32
50349;BME280;36250;48.740;22.174;2022-07-23T02:21:33;100133.28;;;21.07;56.27
50349;BME280;36250;48.740;22.174;2022-07-23T02:23:58;100133.56;;;21.10;56.41
50349;BME280;36250;48.740;22.174;2022-07-23T02:26:23;100138.13;;;21.10;56.84
50349;BME280;36250;48.740;22.174;2022-07-23T02:28:49;100141.09;;;21.08;56.66
50349;BME280;36250;48.740;22.174;2022-07-23T02:31:14;100141.09;;;21.08;56.26
50349;BME280;36250;48.740;22.174;2022-07-23T02:33:39;100138.66;;;21.07;55.73
50349;BME280;36250;48.740;22.174;2022-07-23T02:36:04;100137.88;;;21.06;55.99
50349;BME280;36250;48.740;22.174;2022-07-23T02:38:30;100143.25;;;21.06;57.36
50349;BME280;36250;48.740;22.174;2022-07-23T02:40:55;100144.81;;;20.97;57.60
50349;BME280;36250;48.740;22.174;2022-07-23T02:43:20;100149.06;;;20.88;57.83
50349;BME280;36250;48.740;22.174;2022-07-23T02:45:45;100151.50;;;20.84;58.71
50349;BME280;36250;48.740;22.174;2022-07-23T02:48:10;100153.06;;;20.80;59.28
50349;BME280;36250;48.740;22.174;2022-07-23T02:50:37;100141.72;;;20.78;58.03
50349;BME280;36250;48.740;22.174;2022-07-23T02:53:03;100146.91;;;20.84;58.08
50349;BME280;36250;48.740;22.174;2022-07-23T02:55:28;100144.19;;;20.79;57.19
50349;BME280;36250;48.740;22.174;2022-07-23T02:57:53;100138.47;;;20.76;56.69
50349;BME280;36250;48.740;22.174;2022-07-23T03:00:18;100146.53;;;20.76;56.67
50349;BME280;36250;48.740;22.174;2022-07-23T03:02:44;100147.84;;;20.63;58.07
50349;BME280;36250;48.740;22.174;2022-07-23T03:05:09;100143.47;;;20.56;58.10
50349;BME280;36250;48.740;22.174;2022-07-23T03:07:35;100151.84;;;20.22;60.36
50349;BME280;36250;48.740;22.174;2022-07-23T03:10:00;100142.09;;;19.89;60.82
50349;BME280;36250;48.740;22.174;2022-07-23T03:12:25;100153.09;;;19.87;61.14
50349;BME280;36250;48.740;22.174;2022-07-23T03:14:50;100154.66;;;19.55;61.77
50349;BME280;36250;48.740;22.174;2022-07-23T03:17:15;100150.22;;;19.44;61.91
50349;BME280;36250;48.740;22.174;2022-07-23T03:19:41;100160.75;;;19.46;62.03
50349;BME280;36250;48.740;22.174;2022-07-23T03:22:06;100150.84;;;19.29;62.16
50349;BME280;36250;48.740;22.174;2022-07-23T03:24:31;100159.53;;;19.36;62.25
50349;BME280;36250;48.740;22.174;2022-07-23T03:27:20;100163.72;;;19.27;62.90
50349;BME280;36250;48.740;22.174;2022-07-23T03:29:45;100163.84;;;19.37;62.75
50349;BME280;36250;48.740;22.174;2022-07-23T03:32:10;100168.78;;;19.46;62.82
50349;BME280;36250;48.740;22.174;2022-07-23T03:34:36;100165.84;;;19.47;62.66
50349;BME280;36250;48.740;22.174;2022-07-23T03:37:01;100172.72;;;19.38;63.55
50349;BME280;36250;48.740;22.174;2022-07-23T03:39:26;100174.78;;;19.31;63.79
50349;BME280;36250;48.740;22.174;2022-07-23T03:41:51;100175.97;;;19.18;64.29
50349;BME280;36250;48.740;22.174;2022-07-23T03:44:17;100183.69;;;19.14;64.70
50349;BME280;36250;48.740;22.174;2022-07-23T03:46:42;100179.59;;;19.29;64.25
50349;BME280;36250;48.740;22.174;2022-07-23T03:49:07;100177.59;;;19.41;63.93
50349;BME280;36250;48.740;22.174;2022-07-23T03:51:32;100175.06;;;19.57;63.52
50349;BME280;36250;48.740;22.174;2022-07-23T03:53:57;100177.56;;;19.63;63.69
50349;BME280;36250;48.740;22.174;2022-07-23T03:56:23;100178.78;;;19.78;63.15
50349;BME280;36250;48.740;22.174;2022-07-23T03:58:48;100175.81;;;19.96;62.92
50349;BME280;36250;48.740;22.174;2022-07-23T04:01:14;100181.88;;;20.14;62.87
50349;BME280;36250;48.740;22.174;2022-07-23T04:03:39;100182.56;;;20.32;63.31
50349;BME280;36250;48.740;22.174;2022-07-23T04:06:04;100186.16;;;20.43;62.07
50349;BME280;36250;48.740;22.174;2022-07-23T04:08:30;100184.31;;;20.48;62.09
50349;BME280;36250;48.740;22.174;2022-07-23T04:10:55;100184.94;;;20.61;62.19
50349;BME280;36250;48.740;22.174;2022-07-23T04:13:20;100183.66;;;20.74;61.24
50349;BME280;36250;48.740;22.174;2022-07-23T04:15:46;100183.53;;;20.91;60.35
50349;BME280;36250;48.740;22.174;2022-07-23T04:18:11;100189.00;;;21.01;59.36
50349;BME280;36250;48.740;22.174;2022-07-23T04:20:36;100181.53;;;21.13;59.79
50349;BME280;36250;48.740;22.174;2022-07-23T04:23:01;100190.19;;;21.26;59.49
50349;BME280;36250;48.740;22.174;2022-07-23T04:25:27;100182.44;;;21.40;58.95
50349;BME280;36250;48.740;22.174;2022-07-23T04:27:52;100181.13;;;21.53;58.81
50349;BME280;36250;48.740;22.174;2022-07-23T04:30:17;100184.94;;;21.62;58.38
50349;BME280;36250;48.740;22.174;2022-07-23T04:32:42;100187.97;;;21.71;58.48
50349;BME280;36250;48.740;22.174;2022-07-23T04:35:08;100187.44;;;21.84;57.81
50349;BME280;36250;48.740;22.174;2022-07-23T04:37:33;100191.78;;;22.01;57.42
50349;BME280;36250;48.740;22.174;2022-07-23T04:39:58;100193.41;;;22.18;57.63
50349;BME280;36250;48.740;22.174;2022-07-23T04:42:23;100191.81;;;22.27;57.11
50349;BME280;36250;48.740;22.174;2022-07-23T04:44:48;100195.31;;;22.43;56.70
50349;BME280;36250;48.740;22.174;2022-07-23T04:47:14;100193.16;;;22.61;55.82
50349;BME280;36250;48.740;22.174;2022-07-23T04:49:39;100195.84;;;22.81;55.21
50349;BME280;36250;48.740;22.174;2022-07-23T04:52:04;100192.03;;;22.93;54.99
50349;BME280;36250;48.740;22.174;2022-07-23T04:54:29;100194.97;;;23.01;55.03
50349;BME280;36250;48.740;22.174;2022-07-23T04:56:54;100195.47;;;23.14;54.27
50349;BME280;36250;48.740;22.174;2022-07-23T04:59:20;100196.53;;;23.18;53.78
50349;BME280;36250;48.740;22.174;2022-07-23T05:01:45;100187.09;;;23.26;53.68
50349;BME280;36250;48.740;22.174;2022-07-23T05:04:10;100193.81;;;23.39;52.66
50349;BME280;36250;48.740;22.174;2022-07-23T05:06:35;100198.91;;;23.51;52.16
50349;BME280;36250;48.740;22.174;2022-07-23T05:09:01;100188.59;;;23.58;52.11
50349;BME280;36250;48.740;22.174;2022-07-23T05:11:26;100181.53;;;23.62;51.98
50349;BME280;36250;48.740;22.174;2022-07-23T05:13:51;100179.06;;;23.71;51.33
50349;BME280;36250;48.740;22.174;2022-07-23T05:16:16;100175.47;;;23.81;50.92
50349;BME280;36250;48.740;22.174;2022-07-23T05:18:42;100176.19;;;23.92;50.78
50349;BME280;36250;48.740;22.174;2022-07-23T05:21:07;100181.88;;;23.95;50.64
50349;BME280;36250;48.740;22.174;2022-07-23T05:23:32;100168.16;;;23.81;50.46
50349;BME280;36250;48.740;22.174;2022-07-23T05:25:57;100176.50;;;23.85;50.41
50349;BME280;36250;48.740;22.174;2022-07-23T05:28:22;100174.81;;;23.99;50.35
50349;BME280;36250;48.740;22.174;2022-07-23T05:30:48;100174.47;;;24.11;49.97
50349;BME280;36250;48.740;22.174;2022-07-23T05:33:13;100180.13;;;24.15;50.27
50349;BME280;36250;48.740;22.174;2022-07-23T05:35:38;100176.78;;;24.28;50.44
50349;BME280;36250;48.740;22.174;2022-07-23T05:38:03;100178.78;;;24.47;50.35
50349;BME280;36250;48.740;22.174;2022-07-23T05:40:29;100179.72;;;24.62;49.67
50349;BME280;36250;48.740;22.174;2022-07-23T05:42:54;100177.13;;;24.81;50.00
50349;BME280;36250;48.740;22.174;2022-07-23T05:45:19;100190.28;;;24.93;49.24
50349;BME280;36250;48.740;22.174;2022-07-23T05:47:47;100176.78;;;24.87;47.26
50349;BME280;36250;48.740;22.174;2022-07-23T05:50:13;100186.00;;;24.86;48.57
50349;BME280;36250;48.740;22.174;2022-07-23T05:52:39;100188.06;;;24.95;49.04
50349;BME280;36250;48.740;22.174;2022-07-23T05:55:05;100185.03;;;25.01;49.06
50349;BME280;36250;48.740;22.174;2022-07-23T05:57:30;100195.09;;;25.20;48.54
50349;BME280;36250;48.740;22.174;2022-07-23T05:59:55;100188.47;;;25.31;48.32
50349;BME280;36250;48.740;22.174;2022-07-23T06:02:21;100192.09;;;25.46;47.95
50349;BME280;36250;48.740;22.174;2022-07-23T06:04:46;100192.72;;;25.62;47.34
50349;BME280;36250;48.740;22.174;2022-07-23T06:07:11;100184.06;;;25.79;47.25
50349;BME280;36250;48.740;22.174;2022-07-23T06:09:36;100181.13;;;25.95;46.46
50349;BME280;36250;48.740;22.174;2022-07-23T06:12:01;100177.63;;;26.08;46.25
50349;BME280;36250;48.740;22.174;2022-07-23T06:14:27;100189.50;;;26.17;46.08
50349;BME280;36250;48.740;22.174;2022-07-23T06:16:52;100181.75;;;26.25;46.28
50349;BME280;36250;48.740;22.174;2022-07-23T06:19:17;100177.69;;;26.41;45.54
50349;BME280;36250;48.740;22.174;2022-07-23T06:21:42;100184.25;;;26.54;45.22
50349;BME280;36250;48.740;22.174;2022-07-23T06:24:07;100185.97;;;26.64;44.19
50349;BME280;36250;48.740;22.174;2022-07-23T06:26:33;100184.91;;;26.79;44.36
50349;BME280;36250;48.740;22.174;2022-07-23T06:28:58;100184.13;;;26.93;44.11
50349;BME280;36250;48.740;22.174;2022-07-23T06:31:23;100183.31;;;27.06;43.67
50349;BME280;36250;48.740;22.174;2022-07-23T06:33:48;100179.91;;;27.14;42.63
50349;BME280;36250;48.740;22.174;2022-07-23T06:36:14;100182.81;;;27.04;41.11
50349;BME280;36250;48.740;22.174;2022-07-23T06:38:40;100171.81;;;27.09;41.79
50349;BME280;36250;48.740;22.174;2022-07-23T06:41:05;100178.47;;;27.31;41.65
50349;BME280;36250;48.740;22.174;2022-07-23T06:43:30;100174.53;;;27.51;41.37
50349;BME280;36250;48.740;22.174;2022-07-23T06:45:56;100177.72;;;27.67;40.89
50349;BME280;36250;48.740;22.174;2022-07-23T06:48:21;100175.47;;;27.69;40.91
50349;BME280;36250;48.740;22.174;2022-07-23T06:50:47;100176.09;;;27.66;40.49
50349;BME280;36250;48.740;22.174;2022-07-23T06:53:12;100171.28;;;27.63;41.29
50349;BME280;36250;48.740;22.174;2022-07-23T06:55:38;100177.78;;;27.76;41.60
50349;BME280;36250;48.740;22.174;2022-07-23T06:58:03;100179.81;;;27.93;40.97
50349;BME280;36250;48.740;22.174;2022-07-23T07:00:29;100175.00;;;28.13;41.08
50349;BME280;36250;48.740;22.174;2022-07-23T07:02:56;100171.19;;;28.37;40.69
50349;BME280;36250;48.740;22.174;2022-07-23T07:05:21;100177.50;;;28.55;39.35
50349;BME280;36250;48.740;22.174;2022-07-23T07:07:47;100171.97;;;28.69;39.34
50349;BME280;36250;48.740;22.174;2022-07-23T07:10:13;100171.09;;;28.82;39.53
50349;BME280;36250;48.740;22.174;2022-07-23T07:12:38;100168.56;;;28.95;39.34
50349;BME280;36250;48.740;22.174;2022-07-23T07:15:03;100158.19;;;28.74;38.70
50349;BME280;36250;48.740;22.174;2022-07-23T07:17:29;100161.19;;;28.63;39.92
50349;BME280;36250;48.740;22.174;2022-07-23T07:19:54;100155.13;;;28.67;39.47
50349;BME280;36250;48.740;22.174;2022-07-23T07:22:19;100160.44;;;28.72;40.18
50349;BME280;36250;48.740;22.174;2022-07-23T07:24:44;100166.00;;;28.89;39.73
50349;BME280;36250;48.740;22.174;2022-07-23T07:27:10;100157.38;;;29.05;39.14
50349;BME280;36250;48.740;22.174;2022-07-23T07:29:35;100161.25;;;29.22;38.47
50349;BME280;36250;48.740;22.174;2022-07-23T07:32:00;100157.75;;;29.30;38.10
50349;BME280;36250;48.740;22.174;2022-07-23T07:34:25;100158.88;;;29.38;38.08
50349;BME280;36250;48.740;22.174;2022-07-23T07:36:51;100150.56;;;29.43;38.07
50349;BME280;36250;48.740;22.174;2022-07-23T07:39:16;100156.16;;;29.38;38.72
50349;BME280;36250;48.740;22.174;2022-07-23T07:41:41;100149.59;;;29.39;37.90
50349;BME280;36250;48.740;22.174;2022-07-23T07:44:07;100153.63;;;29.50;37.80
50349;BME280;36250;48.740;22.174;2022-07-23T07:46:32;100154.59;;;29.63;37.51
50349;BME280;36250;48.740;22.174;2022-07-23T07:48:57;100157.47;;;29.75;38.27
50349;BME280;36250;48.740;22.174;2022-07-23T07:51:22;100163.84;;;29.97;37.71
50349;BME280;36250;48.740;22.174;2022-07-23T07:53:48;100157.78;;;29.91;36.86
50349;BME280;36250;48.740;22.174;2022-07-23T07:56:13;100151.38;;;29.87;34.79
50349;BME280;36250;48.740;22.174;2022-07-23T07:58:38;100155.53;;;29.76;35.75
50349;BME280;36250;48.740;22.174;2022-07-23T08:01:03;100157.28;;;29.72;37.22
50349;BME280;36250;48.740;22.174;2022-07-23T08:03:29;100150.88;;;29.76;37.27
50349;BME280;36250;48.740;22.174;2022-07-23T08:05:54;100157.31;;;29.89;37.17
50349;BME280;36250;48.740;22.174;2022-07-23T08:08:19;100155.66;;;29.97;36.68
50349;BME280;36250;48.740;22.174;2022-07-23T08:10:44;100151.22;;;30.01;36.71
50349;BME280;36250;48.740;22.174;2022-07-23T08:13:12;100145.88;;;30.23;36.17
50349;BME280;36250;48.740;22.174;2022-07-23T08:15:37;100149.66;;;30.48;36.42
50349;BME280;36250;48.740;22.174;2022-07-23T08:18:03;100143.53;;;30.60;35.38
50349;BME280;36250;48.740;22.174;2022-07-23T08:20:28;100153.38;;;30.82;35.60
50349;BME280;36250;48.740;22.174;2022-07-23T08:22:54;100148.94;;;30.69;34.95
50349;BME280;36250;48.740;22.174;2022-07-23T08:25:21;100152.59;;;30.73;35.88
50349;BME280;36250;48.740;22.174;2022-07-23T08:27:47;100148.75;;;30.74;35.29
50349;BME280;36250;48.740;22.174;2022-07-23T08:30:12;100143.59;;;30.81;34.25
50349;BME280;36250;48.740;22.174;2022-07-23T08:32:54;100147.38;;;30.89;35.16
50349;BME280;36250;48.740;22.174;2022-07-23T08:35:27;100141.59;;;30.90;34.10
50349;BME280;36250;48.740;22.174;2022-07-23T08:37:52;100142.06;;;30.92;34.09
50349;BME280;36250;48.740;22.174;2022-07-23T08:40:18;100147.63;;;31.05;35.30
50349;BME280;36250;48.740;22.174;2022-07-23T08:42:43;100146.69;;;31.31;34.81
50349;BME280;36250;48.740;22.174;2022-07-23T08:45:09;100141.22;;;31.31;34.55
50349;BME280;36250;48.740;22.174;2022-07-23T08:47:37;100134.25;;;31.55;34.44
50349;BME280;36250;48.740;22.174;2022-07-23T08:50:03;100134.25;;;31.76;33.77
50349;BME280;36250;48.740;22.174;2022-07-23T08:52:28;100130.09;;;31.91;33.85
50349;BME280;36250;48.740;22.174;2022-07-23T08:54:55;100121.50;;;31.80;33.89
50349;BME280;36250;48.740;22.174;2022-07-23T08:57:21;100116.63;;;31.86;34.39
50349;BME280;36250;48.740;22.174;2022-07-23T08:59:46;100116.19;;;31.96;34.50
50349;BME280;36250;48.740;22.174;2022-07-23T09:02:12;100109.16;;;32.07;33.56
50349;BME280;36250;48.740;22.174;2022-07-23T09:04:37;100109.25;;;31.99;33.24
50349;BME280;36250;48.740;22.174;2022-07-23T09:07:02;100102.78;;;32.16;33.65
50349;BME280;36250;48.740;22.174;2022-07-23T09:09:28;100105.22;;;32.42;33.80
50349;BME280;36250;48.740;22.174;2022-07-23T09:12:05;100102.03;;;32.40;32.51
50349;BME280;36250;48.740;22.174;2022-07-23T09:14:41;100092.19;;;32.51;32.41
50349;BME280;36250;48.740;22.174;2022-07-23T09:19:35;100092.97;;;33.02;31.31
50349;BME280;36250;48.740;22.174;2022-07-23T09:22:15;100086.94;;;33.24;31.39
50349;BME280;36250;48.740;22.174;2022-07-23T09:25:01;100090.78;;;33.48;30.67
50349;BME280;36250;48.740;22.174;2022-07-23T09:27:26;100079.25;;;33.71;29.86
50349;BME280;36250;48.740;22.174;2022-07-23T09:30:09;100073.25;;;33.81;28.43
50349;BME280;36250;48.740;22.174;2022-07-23T09:32:35;100075.47;;;33.92;28.83
50349;BME280;36250;48.740;22.174;2022-07-23T09:35:00;100066.19;;;33.97;27.54
50349;BME280;36250;48.740;22.174;2022-07-23T09:37:25;100064.56;;;33.79;28.58
50349;BME280;36250;48.740;22.174;2022-07-23T09:39:50;100062.69;;;33.84;28.21
50349;BME280;36250;48.740;22.174;2022-07-23T09:42:17;100062.41;;;33.73;28.25
50349;BME280;36250;48.740;22.174;2022-07-23T09:44:46;100067.28;;;33.35;28.54
50349;BME280;36250;48.740;22.174;2022-07-23T09:47:12;100054.69;;;33.34;28.48
50349;BME280;36250;48.740;22.174;2022-07-23T09:49:37;100055.59;;;33.38;28.17
50349;BME280;36250;48.740;22.174;2022-07-23T09:52:02;100054.34;;;33.64;28.60
50349;BME280;36250;48.740;22.174;2022-07-23T09:54:34;100049.28;;;33.94;27.97
50349;BME280;36250;48.740;22.174;2022-07-23T09:59:30;100042.94;;;34.42;27.64
50349;BME280;36250;48.740;22.174;2022-07-23T10:01:57;100038.16;;;34.55;26.90
50349;BME280;36250;48.740;22.174;2022-07-23T10:04:24;100044.59;;;34.47;27.24
50349;BME280;36250;48.740;22.174;2022-07-23T10:06:51;100040.03;;;34.51;27.12
50349;BME280;36250;48.740;22.174;2022-07-23T10:09:16;100031.78;;;34.35;26.66
50349;BME280;36250;48.740;22.174;2022-07-23T10:11:45;100039.19;;;34.15;26.95
50349;BME280;36250;48.740;22.174;2022-07-23T10:14:11;100033.84;;;34.22;27.23
50349;BME280;36250;48.740;22.174;2022-07-23T10:16:36;100033.09;;;34.41;27.54
50349;BME280;36250;48.740;22.174;2022-07-23T10:19:03;100029.47;;;34.37;26.42
50349;BME280;36250;48.740;22.174;2022-07-23T10:21:42;100028.53;;;34.13;27.23
50349;BME280;36250;48.740;22.174;2022-07-23T10:26:40;100038.28;;;34.11;27.01
50349;BME280;36250;48.740;22.174;2022-07-23T10:34:21;100027.69;;;34.45;27.41
50349;BME280;36250;48.740;22.174;2022-07-23T10:36:59;100022.25;;;34.64;27.40
50349;BME280;36250;48.740;22.174;2022-07-23T10:39:30;100023.66;;;34.74;25.95
50349;BME280;36250;48.740;22.174;2022-07-23T10:42:12;100020.38;;;34.49;26.40
50349;BME280;36250;48.740;22.174;2022-07-23T10:44:42;100007.63;;;34.60;25.94
50349;BME280;36250;48.740;22.174;2022-07-23T10:47:09;100003.09;;;34.88;26.27
50349;BME280;36250;48.740;22.174;2022-07-23T10:49:49;100004.91;;;35.19;26.04
50349;BME280;36250;48.740;22.174;2022-07-23T10:54:44;100004.22;;;35.65;25.84
50349;BME280;36250;48.740;22.174;2022-07-23T10:57:10;100000.81;;;35.99;25.17
50349;BME280;36250;48.740;22.174;2022-07-23T11:02:20;100001.03;;;35.87;24.39
50349;BME280;36250;48.740;22.174;2022-07-23T11:04:52;100002.50;;;35.80;24.79
50349;BME280;36250;48.740;22.174;2022-07-23T11:07:18;99996.50;;;35.51;24.83
50349;BME280;36250;48.740;22.174;2022-07-23T11:09:43;99995.75;;;35.78;25.58
50349;BME280;36250;48.740;22.174;2022-07-23T11:17:21;99974.06;;;36.27;24.39
50349;BME280;36250;48.740;22.174;2022-07-23T11:22:37;99970.94;;;36.86;24.02
50349;BME280;36250;48.740;22.174;2022-07-23T11:25:03;99968.44;;;37.07;23.47
50349;BME280;36250;48.740;22.174;2022-07-23T11:27:38;99962.69;;;37.23;23.18
50349;BME280;36250;48.740;22.174;2022-07-23T11:30:04;99955.78;;;37.03;22.04
50349;BME280;36250;48.740;22.174;2022-07-23T11:32:30;99947.59;;;36.49;22.26
50349;BME280;36250;48.740;22.174;2022-07-23T11:34:57;99954.69;;;36.50;22.39
50349;BME280;36250;48.740;22.174;2022-07-23T11:37:36;99947.97;;;36.47;22.59
50349;BME280;36250;48.740;22.174;2022-07-23T11:40:09;99951.78;;;36.66;22.10
50349;BME280;36250;48.740;22.174;2022-07-23T11:45:18;99933.28;;;36.66;22.56
50349;BME280;36250;48.740;22.174;2022-07-23T11:47:44;99937.75;;;36.78;22.43
50349;BME280;36250;48.740;22.174;2022-07-23T11:50:09;99944.47;;;36.81;23.16
50349;BME280;36250;48.740;22.174;2022-07-23T11:52:34;99934.88;;;37.02;21.86
50349;BME280;36250;48.740;22.174;2022-07-23T11:55:02;99933.72;;;37.06;21.79
50349;BME280;36250;48.740;22.174;2022-07-23T11:57:31;99931.41;;;37.12;22.08
50349;BME280;36250;48.740;22.174;2022-07-23T12:00:03;99935.97;;;36.97;22.54
50349;BME280;36250;48.740;22.174;2022-07-23T12:02:29;99933.69;;;37.44;22.20
50349;BME280;36250;48.740;22.174;2022-07-23T12:04:54;99925.53;;;37.59;21.71
50349;BME280;36250;48.740;22.174;2022-07-23T12:09:48;99920.50;;;37.72;21.11
50349;BME280;36250;48.740;22.174;2022-07-23T12:12:13;99921.28;;;37.72;20.77
50349;BME280;36250;48.740;22.174;2022-07-23T12:14:48;99918.75;;;37.49;20.95
50349;BME280;36250;48.740;22.174;2022-07-23T12:17:14;99907.84;;;37.63;21.68
50349;BME280;36250;48.740;22.174;2022-07-23T12:19:39;99914.34;;;37.93;21.78
50349;BME280;36250;48.740;22.174;2022-07-23T12:22:04;99903.06;;;38.20;21.13
50349;BME280;36250;48.740;22.174;2022-07-23T12:24:30;99894.44;;;38.39;20.68
50349;BME280;36250;48.740;22.174;2022-07-23T12:27:07;99895.97;;;38.19;20.78
50349;BME280;36250;48.740;22.174;2022-07-23T12:29:36;99891.94;;;38.09;21.19
50349;BME280;36250;48.740;22.174;2022-07-23T12:32:01;99885.41;;;38.50;20.46
50349;BME280;36250;48.740;22.174;2022-07-23T12:34:26;99888.22;;;38.53;20.71
50349;BME280;36250;48.740;22.174;2022-07-23T12:36:52;99879.88;;;38.43;20.22
50349;BME280;36250;48.740;22.174;2022-07-23T12:39:30;99875.44;;;38.27;20.71
50349;BME280;36250;48.740;22.174;2022-07-23T12:41:58;99878.53;;;38.11;20.57
50349;BME280;36250;48.740;22.174;2022-07-23T12:44:23;99880.84;;;37.98;20.98
50349;BME280;36250;48.740;22.174;2022-07-23T12:46:52;99878.41;;;37.93;20.24
50349;BME280;36250;48.740;22.174;2022-07-23T12:49:26;99876.91;;;38.06;20.47
50349;BME280;36250;48.740;22.174;2022-07-23T12:51:52;99875.72;;;38.00;21.05
50349;BME280;36250;48.740;22.174;2022-07-23T12:54:17;99873.28;;;37.95;21.08
50349;BME280;36250;48.740;22.174;2022-07-23T12:56:45;99873.28;;;37.95;21.07
50349;BME280;36250;48.740;22.174;2022-07-23T12:59:11;99863.56;;;38.16;20.94
50349;BME280;36250;48.740;22.174;2022-07-23T13:01:59;99857.03;;;38.60;20.57
50349;BME280;36250;48.740;22.174;2022-07-23T13:04:24;99860.59;;;38.86;20.21
50349;BME280;36250;48.740;22.174;2022-07-23T13:06:51;99848.00;;;38.96;19.62